sensor_id;sensor_type;location;lat;lon;timestamp;P1;durP1;ratioP1;P2;durP2;ratioP2
59728;SDS011;45588;51.598;5.618;2023-04-08T00:00:59;59.88;;;23.40;;
59728;SDS011;45588;51.598;5.618;2023-04-08T00:03:24;62.17;;;23.98;;
59728;SDS011;45588;51.598;5.618;2023-04-08T00:05:49;65.60;;;25.92;;
59728;SDS011;45588;51.598;5.618;2023-04-08T00:08:15;59.17;;;23.90;;
59728;SDS011;45588;51.598;5.618;2023-04-08T00:10:40;58.85;;;24.50;;
59728;SDS011;45588;51.598;5.618;2023-04-08T00:13:05;57.03;;;24.58;;
59728;SDS011;45588;51.598;5.618;2023-04-08T00:15:30;62.92;;;25.40;;
59728;SDS011;45588;51.598;5.618;2023-04-08T00:17:56;65.45;;;24.33;;
59728;SDS011;45588;51.598;5.618;2023-04-08T00:20:22;96.90;;;55.70;;
59728;SDS011;45588;51.598;5.618;2023-04-08T00:22:47;60.75;;;25.02;;
59728;SDS011;45588;51.598;5.618;2023-04-08T00:25:12;101.80;;;58.33;;
59728;SDS011;45588;51.598;5.618;2023-04-08T00:27:37;64.07;;;25.97;;
59728;SDS011;45588;51.598;5.618;2023-04-08T00:30:02;66.77;;;24.47;;
59728;SDS011;45588;51.598;5.618;2023-04-08T00:32:28;72.20;;;28.15;;
59728;SDS011;45588;51.598;5.618;2023-04-08T00:34:53;67.40;;;27.90;;
59728;SDS011;45588;51.598;5.618;2023-04-08T00:37:18;62.38;;;26.30;;
59728;SDS011;45588;51.598;5.618;2023-04-08T00:39:43;60.97;;;25.73;;
59728;SDS011;45588;51.598;5.618;2023-04-08T00:42:09;70.60;;;29.05;;
59728;SDS011;45588;51.598;5.618;2023-04-08T00:44:34;66.30;;;26.92;;
59728;SDS011;45588;51.598;5.618;2023-04-08T00:46:59;69.03;;;25.92;;
59728;SDS011;45588;51.598;5.618;2023-04-08T00:49:25;96.97;;;58.20;;
59728;SDS011;45588;51.598;5.618;2023-04-08T00:51:50;71.25;;;26.25;;
59728;SDS011;45588;51.598;5.618;2023-04-08T00:54:15;63.58;;;26.58;;
59728;SDS011;45588;51.598;5.618;2023-04-08T00:56:41;68.97;;;27.97;;
59728;SDS011;45588;51.598;5.618;2023-04-08T00:59:07;70.10;;;28.92;;
59728;SDS011;45588;51.598;5.618;2023-04-08T01:01:33;66.63;;;27.77;;
59728;SDS011;45588;51.598;5.618;2023-04-08T01:04:08;64.95;;;27.77;;
59728;SDS011;45588;51.598;5.618;2023-04-08T01:06:48;103.35;;;60.72;;
59728;SDS011;45588;51.598;5.618;2023-04-08T01:09:17;65.03;;;27.38;;
59728;SDS011;45588;51.598;5.618;2023-04-08T01:11:43;68.18;;;26.95;;
59728;SDS011;45588;51.598;5.618;2023-04-08T01:14:08;68.97;;;27.25;;
59728;SDS011;45588;51.598;5.618;2023-04-08T01:16:36;78.35;;;29.50;;
59728;SDS011;45588;51.598;5.618;2023-04-08T01:19:02;62.95;;;27.70;;
59728;SDS011;45588;51.598;5.618;2023-04-08T01:21:28;76.38;;;30.98;;
59728;SDS011;45588;51.598;5.618;2023-04-08T01:24:00;75.53;;;30.05;;
59728;SDS011;45588;51.598;5.618;2023-04-08T01:26:29;75.60;;;28.23;;
59728;SDS011;45588;51.598;5.618;2023-04-08T01:28:55;64.85;;;27.65;;
59728;SDS011;45588;51.598;5.618;2023-04-08T01:31:21;77.47;;;31.40;;
59728;SDS011;45588;51.598;5.618;2023-04-08T01:33:48;67.25;;;26.50;;
59728;SDS011;45588;51.598;5.618;2023-04-08T01:36:13;71.82;;;28.17;;
59728;SDS011;45588;51.598;5.618;2023-04-08T01:38:39;105.60;;;63.80;;
59728;SDS011;45588;51.598;5.618;2023-04-08T01:41:05;69.65;;;29.08;;
59728;SDS011;45588;51.598;5.618;2023-04-08T01:43:30;65.78;;;27.05;;
59728;SDS011;45588;51.598;5.618;2023-04-08T01:45:57;72.70;;;26.83;;
59728;SDS011;45588;51.598;5.618;2023-04-08T01:48:23;70.22;;;28.00;;
59728;SDS011;45588;51.598;5.618;2023-04-08T01:50:49;66.05;;;27.30;;
59728;SDS011;45588;51.598;5.618;2023-04-08T01:53:15;67.18;;;25.75;;
59728;SDS011;45588;51.598;5.618;2023-04-08T01:55:41;68.22;;;27.00;;
59728;SDS011;45588;51.598;5.618;2023-04-08T01:58:06;100.22;;;62.17;;
59728;SDS011;45588;51.598;5.618;2023-04-08T02:00:32;62.03;;;25.35;;
59728;SDS011;45588;51.598;5.618;2023-04-08T02:02:58;64.47;;;25.08;;
59728;SDS011;45588;51.598;5.618;2023-04-08T02:05:23;64.93;;;26.77;;
59728;SDS011;45588;51.598;5.618;2023-04-08T02:07:48;62.80;;;24.70;;
59728;SDS011;45588;51.598;5.618;2023-04-08T02:10:14;96.15;;;60.70;;
59728;SDS011;45588;51.598;5.618;2023-04-08T02:12:40;67.78;;;26.13;;
59728;SDS011;45588;51.598;5.618;2023-04-08T02:15:05;61.85;;;25.25;;
59728;SDS011;45588;51.598;5.618;2023-04-08T02:17:35;63.22;;;24.45;;
59728;SDS011;45588;51.598;5.618;2023-04-08T02:20:12;100.13;;;60.08;;
59728;SDS011;45588;51.598;5.618;2023-04-08T02:22:42;68.10;;;27.30;;
59728;SDS011;45588;51.598;5.618;2023-04-08T02:25:10;67.45;;;27.42;;
59728;SDS011;45588;51.598;5.618;2023-04-08T02:27:37;92.10;;;59.22;;
59728;SDS011;45588;51.598;5.618;2023-04-08T02:30:03;72.00;;;28.13;;
59728;SDS011;45588;51.598;5.618;2023-04-08T02:32:30;70.25;;;27.42;;
59728;SDS011;45588;51.598;5.618;2023-04-08T02:34:56;60.70;;;26.73;;
59728;SDS011;45588;51.598;5.618;2023-04-08T02:37:23;61.85;;;27.80;;
59728;SDS011;45588;51.598;5.618;2023-04-08T02:39:48;96.70;;;60.00;;
59728;SDS011;45588;51.598;5.618;2023-04-08T02:42:14;60.95;;;26.45;;
59728;SDS011;45588;51.598;5.618;2023-04-08T02:44:39;62.80;;;25.27;;
59728;SDS011;45588;51.598;5.618;2023-04-08T02:47:04;62.22;;;25.65;;
59728;SDS011;45588;51.598;5.618;2023-04-08T02:49:30;63.17;;;24.17;;
59728;SDS011;45588;51.598;5.618;2023-04-08T02:51:55;65.40;;;27.30;;
59728;SDS011;45588;51.598;5.618;2023-04-08T02:54:20;66.53;;;27.00;;
59728;SDS011;45588;51.598;5.618;2023-04-08T02:56:48;60.78;;;24.73;;
59728;SDS011;45588;51.598;5.618;2023-04-08T02:59:14;90.10;;;56.67;;
59728;SDS011;45588;51.598;5.618;2023-04-08T03:01:39;55.58;;;23.08;;
59728;SDS011;45588;51.598;5.618;2023-04-08T03:04:04;54.22;;;23.98;;
59728;SDS011;45588;51.598;5.618;2023-04-08T03:06:30;60.95;;;23.88;;
59728;SDS011;45588;51.598;5.618;2023-04-08T03:08:56;60.42;;;26.50;;
59728;SDS011;45588;51.598;5.618;2023-04-08T03:11:21;60.25;;;25.25;;
59728;SDS011;45588;51.598;5.618;2023-04-08T03:13:46;63.65;;;24.92;;
59728;SDS011;45588;51.598;5.618;2023-04-08T03:16:11;62.28;;;24.65;;
59728;SDS011;45588;51.598;5.618;2023-04-08T03:18:37;62.20;;;24.17;;
59728;SDS011;45588;51.598;5.618;2023-04-08T03:21:02;91.22;;;55.88;;
59728;SDS011;45588;51.598;5.618;2023-04-08T03:23:27;57.97;;;24.23;;
59728;SDS011;45588;51.598;5.618;2023-04-08T03:25:52;56.17;;;24.10;;
59728;SDS011;45588;51.598;5.618;2023-04-08T03:28:17;66.13;;;25.45;;
59728;SDS011;45588;51.598;5.618;2023-04-08T03:30:43;52.13;;;23.35;;
59728;SDS011;45588;51.598;5.618;2023-04-08T03:33:08;59.33;;;25.67;;
59728;SDS011;45588;51.598;5.618;2023-04-08T03:35:33;59.67;;;25.55;;
59728;SDS011;45588;51.598;5.618;2023-04-08T03:37:59;101.72;;;59.28;;
59728;SDS011;45588;51.598;5.618;2023-04-08T03:40:24;74.53;;;27.40;;
59728;SDS011;45588;51.598;5.618;2023-04-08T03:42:49;125.07;;;21.45;;
59728;SDS011;45588;51.598;5.618;2023-04-08T03:45:14;55.75;;;22.63;;
59728;SDS011;45588;51.598;5.618;2023-04-08T03:47:39;52.07;;;20.43;;
59728;SDS011;45588;51.598;5.618;2023-04-08T03:50:05;50.30;;;21.65;;
59728;SDS011;45588;51.598;5.618;2023-04-08T03:52:30;54.05;;;23.17;;
59728;SDS011;45588;51.598;5.618;2023-04-08T03:54:55;54.70;;;23.58;;
59728;SDS011;45588;51.598;5.618;2023-04-08T03:57:20;60.35;;;23.40;;
59728;SDS011;45588;51.598;5.618;2023-04-08T03:59:46;212.77;;;23.40;;
59728;SDS011;45588;51.598;5.618;2023-04-08T04:02:11;224.07;;;56.30;;
59728;SDS011;45588;51.598;5.618;2023-04-08T04:04:36;44.35;;;19.80;;
59728;SDS011;45588;51.598;5.618;2023-04-08T04:07:01;52.20;;;22.23;;
59728;SDS011;45588;51.598;5.618;2023-04-08T04:09:26;58.80;;;21.52;;
59728;SDS011;45588;51.598;5.618;2023-04-08T04:11:52;55.42;;;21.60;;
59728;SDS011;45588;51.598;5.618;2023-04-08T04:14:17;56.08;;;22.63;;
59728;SDS011;45588;51.598;5.618;2023-04-08T04:16:42;106.45;;;59.40;;
59728;SDS011;45588;51.598;5.618;2023-04-08T04:19:07;77.70;;;21.37;;
59728;SDS011;45588;51.598;5.618;2023-04-08T04:21:32;58.27;;;17.60;;
59728;SDS011;45588;51.598;5.618;2023-04-08T04:23:57;61.38;;;25.27;;
59728;SDS011;45588;51.598;5.618;2023-04-08T04:26:23;58.83;;;23.60;;
59728;SDS011;45588;51.598;5.618;2023-04-08T04:28:48;80.40;;;28.57;;
59728;SDS011;45588;51.598;5.618;2023-04-08T04:31:20;65.78;;;25.30;;
59728;SDS011;45588;51.598;5.618;2023-04-08T04:33:45;73.15;;;26.23;;
59728;SDS011;45588;51.598;5.618;2023-04-08T04:36:11;68.13;;;26.60;;
59728;SDS011;45588;51.598;5.618;2023-04-08T04:38:36;79.40;;;28.95;;
59728;SDS011;45588;51.598;5.618;2023-04-08T04:41:02;75.53;;;28.83;;
59728;SDS011;45588;51.598;5.618;2023-04-08T04:43:28;81.07;;;29.93;;
59728;SDS011;45588;51.598;5.618;2023-04-08T04:45:53;81.60;;;30.57;;
59728;SDS011;45588;51.598;5.618;2023-04-08T04:48:18;76.70;;;26.70;;
59728;SDS011;45588;51.598;5.618;2023-04-08T04:50:43;133.80;;;65.73;;
59728;SDS011;45588;51.598;5.618;2023-04-08T04:53:08;68.75;;;26.75;;
59728;SDS011;45588;51.598;5.618;2023-04-08T04:55:33;74.70;;;28.00;;
59728;SDS011;45588;51.598;5.618;2023-04-08T04:57:59;81.68;;;28.17;;
59728;SDS011;45588;51.598;5.618;2023-04-08T05:00:24;69.03;;;26.00;;
59728;SDS011;45588;51.598;5.618;2023-04-08T05:02:49;73.50;;;28.23;;
59728;SDS011;45588;51.598;5.618;2023-04-08T05:05:14;71.85;;;25.42;;
59728;SDS011;45588;51.598;5.618;2023-04-08T05:07:40;74.35;;;27.80;;
59728;SDS011;45588;51.598;5.618;2023-04-08T05:10:05;72.72;;;29.23;;
59728;SDS011;45588;51.598;5.618;2023-04-08T05:12:30;73.95;;;29.75;;
59728;SDS011;45588;51.598;5.618;2023-04-08T05:14:59;68.78;;;27.73;;
59728;SDS011;45588;51.598;5.618;2023-04-08T05:17:24;72.95;;;28.08;;
59728;SDS011;45588;51.598;5.618;2023-04-08T05:19:49;83.55;;;29.55;;
59728;SDS011;45588;51.598;5.618;2023-04-08T05:22:15;103.60;;;63.17;;
59728;SDS011;45588;51.598;5.618;2023-04-08T05:24:41;67.68;;;28.08;;
59728;SDS011;45588;51.598;5.618;2023-04-08T05:27:06;62.57;;;23.90;;
59728;SDS011;45588;51.598;5.618;2023-04-08T05:29:31;64.93;;;27.15;;
59728;SDS011;45588;51.598;5.618;2023-04-08T05:31:56;62.53;;;26.50;;
59728;SDS011;45588;51.598;5.618;2023-04-08T05:34:22;62.30;;;24.97;;
59728;SDS011;45588;51.598;5.618;2023-04-08T05:36:47;71.50;;;28.48;;
59728;SDS011;45588;51.598;5.618;2023-04-08T05:39:15;69.07;;;28.33;;
59728;SDS011;45588;51.598;5.618;2023-04-08T05:41:41;64.30;;;29.27;;
59728;SDS011;45588;51.598;5.618;2023-04-08T05:44:06;63.17;;;26.73;;
59728;SDS011;45588;51.598;5.618;2023-04-08T05:46:31;60.30;;;24.65;;
59728;SDS011;45588;51.598;5.618;2023-04-08T05:48:56;63.50;;;27.33;;
59728;SDS011;45588;51.598;5.618;2023-04-08T05:51:22;67.03;;;29.27;;
59728;SDS011;45588;51.598;5.618;2023-04-08T05:53:47;59.90;;;26.70;;
59728;SDS011;45588;51.598;5.618;2023-04-08T05:56:12;65.78;;;28.17;;
59728;SDS011;45588;51.598;5.618;2023-04-08T05:58:37;69.22;;;28.05;;
59728;SDS011;45588;51.598;5.618;2023-04-08T06:01:03;84.78;;;56.47;;
59728;SDS011;45588;51.598;5.618;2023-04-08T06:03:30;63.38;;;26.08;;
59728;SDS011;45588;51.598;5.618;2023-04-08T06:05:55;65.85;;;28.00;;
59728;SDS011;45588;51.598;5.618;2023-04-08T06:08:20;67.50;;;28.20;;
59728;SDS011;45588;51.598;5.618;2023-04-08T06:10:49;68.93;;;29.35;;
59728;SDS011;45588;51.598;5.618;2023-04-08T06:13:14;71.40;;;29.80;;
59728;SDS011;45588;51.598;5.618;2023-04-08T06:15:40;89.18;;;57.90;;
59728;SDS011;45588;51.598;5.618;2023-04-08T06:18:05;82.63;;;55.40;;
59728;SDS011;45588;51.598;5.618;2023-04-08T06:20:30;68.80;;;29.92;;
59728;SDS011;45588;51.598;5.618;2023-04-08T06:22:56;62.80;;;28.50;;
59728;SDS011;45588;51.598;5.618;2023-04-08T06:25:21;80.63;;;55.67;;
59728;SDS011;45588;51.598;5.618;2023-04-08T06:27:47;60.95;;;24.70;;
59728;SDS011;45588;51.598;5.618;2023-04-08T06:30:12;86.22;;;57.28;;
59728;SDS011;45588;51.598;5.618;2023-04-08T06:32:38;75.78;;;30.67;;
59728;SDS011;45588;51.598;5.618;2023-04-08T06:35:04;73.97;;;29.35;;
59728;SDS011;45588;51.598;5.618;2023-04-08T06:37:29;85.55;;;59.28;;
59728;SDS011;45588;51.598;5.618;2023-04-08T06:39:54;66.25;;;29.67;;
59728;SDS011;45588;51.598;5.618;2023-04-08T06:42:19;68.90;;;26.27;;
59728;SDS011;45588;51.598;5.618;2023-04-08T06:44:45;86.18;;;58.88;;
59728;SDS011;45588;51.598;5.618;2023-04-08T06:47:10;68.37;;;30.83;;
59728;SDS011;45588;51.598;5.618;2023-04-08T06:49:35;58.30;;;26.63;;
59728;SDS011;45588;51.598;5.618;2023-04-08T06:52:01;58.85;;;26.80;;
59728;SDS011;45588;51.598;5.618;2023-04-08T06:54:26;84.05;;;58.85;;
59728;SDS011;45588;51.598;5.618;2023-04-08T06:56:51;60.03;;;27.83;;
59728;SDS011;45588;51.598;5.618;2023-04-08T06:59:19;64.30;;;28.23;;
59728;SDS011;45588;51.598;5.618;2023-04-08T07:01:44;64.38;;;27.92;;
59728;SDS011;45588;51.598;5.618;2023-04-08T07:04:10;67.90;;;29.13;;
59728;SDS011;45588;51.598;5.618;2023-04-08T07:06:35;70.45;;;32.58;;
59728;SDS011;45588;51.598;5.618;2023-04-08T07:09:01;66.50;;;29.55;;
59728;SDS011;45588;51.598;5.618;2023-04-08T07:11:26;61.97;;;27.43;;
59728;SDS011;45588;51.598;5.618;2023-04-08T07:13:51;70.38;;;29.30;;
59728;SDS011;45588;51.598;5.618;2023-04-08T07:16:16;68.65;;;27.98;;
59728;SDS011;45588;51.598;5.618;2023-04-08T07:18:42;71.20;;;31.25;;
59728;SDS011;45588;51.598;5.618;2023-04-08T07:21:07;66.72;;;28.50;;
59728;SDS011;45588;51.598;5.618;2023-04-08T07:23:32;70.03;;;30.57;;
59728;SDS011;45588;51.598;5.618;2023-04-08T07:26:04;68.30;;;28.53;;
59728;SDS011;45588;51.598;5.618;2023-04-08T07:28:29;74.18;;;31.63;;
59728;SDS011;45588;51.598;5.618;2023-04-08T07:30:55;71.80;;;29.23;;
59728;SDS011;45588;51.598;5.618;2023-04-08T07:33:20;80.40;;;35.47;;
59728;SDS011;45588;51.598;5.618;2023-04-08T07:35:45;74.90;;;29.42;;
59728;SDS011;45588;51.598;5.618;2023-04-08T07:38:10;61.92;;;28.05;;
59728;SDS011;45588;51.598;5.618;2023-04-08T07:40:37;92.82;;;60.50;;
59728;SDS011;45588;51.598;5.618;2023-04-08T07:43:02;68.45;;;29.38;;
59728;SDS011;45588;51.598;5.618;2023-04-08T07:45:27;67.23;;;28.80;;
59728;SDS011;45588;51.598;5.618;2023-04-08T07:47:53;72.40;;;29.73;;
59728;SDS011;45588;51.598;5.618;2023-04-08T07:50:18;65.35;;;27.88;;
59728;SDS011;45588;51.598;5.618;2023-04-08T07:52:44;69.28;;;28.48;;
59728;SDS011;45588;51.598;5.618;2023-04-08T07:55:09;86.28;;;57.25;;
59728;SDS011;45588;51.598;5.618;2023-04-08T07:57:34;61.13;;;25.00;;
59728;SDS011;45588;51.598;5.618;2023-04-08T07:59:59;61.28;;;26.88;;
59728;SDS011;45588;51.598;5.618;2023-04-08T08:02:28;60.17;;;27.30;;
59728;SDS011;45588;51.598;5.618;2023-04-08T08:04:53;63.88;;;25.85;;
59728;SDS011;45588;51.598;5.618;2023-04-08T08:07:18;66.18;;;28.75;;
59728;SDS011;45588;51.598;5.618;2023-04-08T08:09:43;64.33;;;28.13;;
59728;SDS011;45588;51.598;5.618;2023-04-08T08:12:08;67.07;;;27.13;;
59728;SDS011;45588;51.598;5.618;2023-04-08T08:14:34;92.10;;;61.67;;
59728;SDS011;45588;51.598;5.618;2023-04-08T08:16:59;61.90;;;25.20;;
59728;SDS011;45588;51.598;5.618;2023-04-08T08:19:25;54.30;;;24.15;;
59728;SDS011;45588;51.598;5.618;2023-04-08T08:21:50;62.92;;;27.70;;
59728;SDS011;45588;51.598;5.618;2023-04-08T08:24:16;55.72;;;25.83;;
59728;SDS011;45588;51.598;5.618;2023-04-08T08:26:41;57.63;;;25.87;;
59728;SDS011;45588;51.598;5.618;2023-04-08T08:29:06;54.45;;;24.52;;
59728;SDS011;45588;51.598;5.618;2023-04-08T08:31:32;61.78;;;26.23;;
59728;SDS011;45588;51.598;5.618;2023-04-08T08:33:57;58.30;;;24.10;;
59728;SDS011;45588;51.598;5.618;2023-04-08T08:36:23;51.97;;;22.80;;
59728;SDS011;45588;51.598;5.618;2023-04-08T08:38:48;52.85;;;24.60;;
59728;SDS011;45588;51.598;5.618;2023-04-08T08:41:13;50.35;;;25.05;;
59728;SDS011;45588;51.598;5.618;2023-04-08T08:43:39;47.45;;;23.63;;
59728;SDS011;45588;51.598;5.618;2023-04-08T08:46:05;59.50;;;47.88;;
59728;SDS011;45588;51.598;5.618;2023-04-08T08:48:33;60.45;;;49.78;;
59728;SDS011;45588;51.598;5.618;2023-04-08T08:51:06;53.50;;;27.80;;
59728;SDS011;45588;51.598;5.618;2023-04-08T08:53:35;58.50;;;29.42;;
59728;SDS011;45588;51.598;5.618;2023-04-08T08:56:00;49.38;;;26.58;;
59728;SDS011;45588;51.598;5.618;2023-04-08T08:58:26;49.88;;;27.23;;
59728;SDS011;45588;51.598;5.618;2023-04-08T09:00:51;52.58;;;26.92;;
59728;SDS011;45588;51.598;5.618;2023-04-08T09:03:17;50.73;;;26.47;;
59728;SDS011;45588;51.598;5.618;2023-04-08T09:05:53;48.65;;;25.30;;
59728;SDS011;45588;51.598;5.618;2023-04-08T09:10:50;55.45;;;30.90;;
59728;SDS011;45588;51.598;5.618;2023-04-08T09:13:15;47.80;;;25.85;;
59728;SDS011;45588;51.598;5.618;2023-04-08T09:16:02;56.20;;;30.20;;
59728;SDS011;45588;51.598;5.618;2023-04-08T09:18:27;44.60;;;23.83;;
59728;SDS011;45588;51.598;5.618;2023-04-08T09:20:52;51.25;;;24.52;;
59728;SDS011;45588;51.598;5.618;2023-04-08T09:23:17;47.25;;;25.48;;
59728;SDS011;45588;51.598;5.618;2023-04-08T09:25:43;53.97;;;45.05;;
59728;SDS011;45588;51.598;5.618;2023-04-08T09:28:17;50.33;;;26.03;;
59728;SDS011;45588;51.598;5.618;2023-04-08T09:30:43;45.10;;;25.63;;
59728;SDS011;45588;51.598;5.618;2023-04-08T09:33:08;41.72;;;24.17;;
59728;SDS011;45588;51.598;5.618;2023-04-08T09:35:33;45.60;;;23.63;;
59728;SDS011;45588;51.598;5.618;2023-04-08T09:37:58;46.67;;;24.50;;
59728;SDS011;45588;51.598;5.618;2023-04-08T09:40:25;43.63;;;25.42;;
59728;SDS011;45588;51.598;5.618;2023-04-08T09:42:51;46.58;;;41.13;;
59728;SDS011;45588;51.598;5.618;2023-04-08T09:45:17;39.92;;;22.73;;
59728;SDS011;45588;51.598;5.618;2023-04-08T09:48:08;50.00;;;44.47;;
59728;SDS011;45588;51.598;5.618;2023-04-08T09:50:32;39.90;;;22.58;;
59728;SDS011;45588;51.598;5.618;2023-04-08T09:53:00;45.85;;;41.05;;
59728;SDS011;45588;51.598;5.618;2023-04-08T09:55:29;33.42;;;20.00;;
59728;SDS011;45588;51.598;5.618;2023-04-08T09:58:00;46.05;;;41.22;;
59728;SDS011;45588;51.598;5.618;2023-04-08T10:00:31;39.03;;;23.17;;
59728;SDS011;45588;51.598;5.618;2023-04-08T10:05:22;38.38;;;22.92;;
59728;SDS011;45588;51.598;5.618;2023-04-08T10:07:48;42.38;;;22.92;;
59728;SDS011;45588;51.598;5.618;2023-04-08T10:10:14;49.60;;;44.35;;
59728;SDS011;45588;51.598;5.618;2023-04-08T10:12:39;39.28;;;22.75;;
59728;SDS011;45588;51.598;5.618;2023-04-08T10:15:20;41.60;;;26.58;;
59728;SDS011;45588;51.598;5.618;2023-04-08T10:17:46;41.70;;;24.85;;
59728;SDS011;45588;51.598;5.618;2023-04-08T10:22:55;53.92;;;48.33;;
59728;SDS011;45588;51.598;5.618;2023-04-08T10:25:27;52.33;;;46.75;;
59728;SDS011;45588;51.598;5.618;2023-04-08T10:27:53;50.35;;;45.15;;
59728;SDS011;45588;51.598;5.618;2023-04-08T10:32:55;42.75;;;24.75;;
59728;SDS011;45588;51.598;5.618;2023-04-08T10:35:28;38.20;;;23.05;;
59728;SDS011;45588;51.598;5.618;2023-04-08T10:37:53;41.72;;;23.77;;
59728;SDS011;45588;51.598;5.618;2023-04-08T10:40:18;40.70;;;25.75;;
59728;SDS011;45588;51.598;5.618;2023-04-08T10:42:43;46.33;;;41.70;;
59728;SDS011;45588;51.598;5.618;2023-04-08T10:45:09;41.92;;;23.67;;
59728;SDS011;45588;51.598;5.618;2023-04-08T10:47:34;37.67;;;23.20;;
59728;SDS011;45588;51.598;5.618;2023-04-08T10:49:59;38.88;;;24.45;;
59728;SDS011;45588;51.598;5.618;2023-04-08T10:52:25;42.90;;;38.55;;
59728;SDS011;45588;51.598;5.618;2023-04-08T10:54:51;44.30;;;39.70;;
59728;SDS011;45588;51.598;5.618;2023-04-08T10:57:22;41.53;;;37.42;;
59728;SDS011;45588;51.598;5.618;2023-04-08T10:59:48;39.75;;;23.08;;
59728;SDS011;45588;51.598;5.618;2023-04-08T11:02:13;40.03;;;28.17;;
59728;SDS011;45588;51.598;5.618;2023-04-08T11:04:43;45.80;;;41.22;;
59728;SDS011;45588;51.598;5.618;2023-04-08T11:07:08;43.38;;;39.10;;
59728;SDS011;45588;51.598;5.618;2023-04-08T11:09:33;37.10;;;23.92;;
59728;SDS011;45588;51.598;5.618;2023-04-08T11:11:59;43.97;;;39.53;;
59728;SDS011;45588;51.598;5.618;2023-04-08T11:14:25;38.65;;;22.90;;
59728;SDS011;45588;51.598;5.618;2023-04-08T11:16:51;44.03;;;39.63;;
59728;SDS011;45588;51.598;5.618;2023-04-08T11:19:16;45.00;;;40.47;;
59728;SDS011;45588;51.598;5.618;2023-04-08T11:21:42;40.25;;;26.55;;
59728;SDS011;45588;51.598;5.618;2023-04-08T11:24:10;38.75;;;27.83;;
59728;SDS011;45588;51.598;5.618;2023-04-08T11:26:39;46.55;;;41.75;;
59728;SDS011;45588;51.598;5.618;2023-04-08T11:29:05;34.00;;;21.05;;
59728;SDS011;45588;51.598;5.618;2023-04-08T11:31:30;42.30;;;38.20;;
59728;SDS011;45588;51.598;5.618;2023-04-08T11:33:56;49.33;;;44.50;;
59728;SDS011;45588;51.598;5.618;2023-04-08T11:36:22;42.40;;;38.30;;
59728;SDS011;45588;51.598;5.618;2023-04-08T11:38:47;43.15;;;38.83;;
59728;SDS011;45588;51.598;5.618;2023-04-08T11:41:13;44.15;;;39.60;;
59728;SDS011;45588;51.598;5.618;2023-04-08T11:43:38;37.08;;;23.50;;
59728;SDS011;45588;51.598;5.618;2023-04-08T11:46:10;32.10;;;21.77;;
59728;SDS011;45588;51.598;5.618;2023-04-08T11:48:36;42.08;;;37.97;;
59728;SDS011;45588;51.598;5.618;2023-04-08T11:51:03;39.47;;;35.72;;
59728;SDS011;45588;51.598;5.618;2023-04-08T11:53:28;42.95;;;38.53;;
59728;SDS011;45588;51.598;5.618;2023-04-08T11:55:54;40.07;;;36.17;;
59728;SDS011;45588;51.598;5.618;2023-04-08T11:58:20;41.40;;;37.40;;
59728;SDS011;45588;51.598;5.618;2023-04-08T12:00:45;41.30;;;37.00;;
59728;SDS011;45588;51.598;5.618;2023-04-08T12:03:10;39.88;;;36.13;;
59728;SDS011;45588;51.598;5.618;2023-04-08T12:05:36;39.08;;;35.38;;
59728;SDS011;45588;51.598;5.618;2023-04-08T12:08:02;37.75;;;34.15;;
59728;SDS011;45588;51.598;5.618;2023-04-08T12:10:27;37.05;;;33.25;;
59728;SDS011;45588;51.598;5.618;2023-04-08T12:12:53;39.60;;;35.78;;
59728;SDS011;45588;51.598;5.618;2023-04-08T12:15:18;38.05;;;34.35;;
59728;SDS011;45588;51.598;5.618;2023-04-08T12:17:43;37.60;;;34.07;;
59728;SDS011;45588;51.598;5.618;2023-04-08T12:20:09;36.95;;;33.35;;
59728;SDS011;45588;51.598;5.618;2023-04-08T12:22:35;38.15;;;34.55;;
59728;SDS011;45588;51.598;5.618;2023-04-08T12:25:00;36.90;;;33.38;;
59728;SDS011;45588;51.598;5.618;2023-04-08T12:27:27;33.88;;;30.85;;
59728;SDS011;45588;51.598;5.618;2023-04-08T12:29:52;36.20;;;32.90;;
59728;SDS011;45588;51.598;5.618;2023-04-08T12:32:18;36.88;;;33.47;;
59728;SDS011;45588;51.598;5.618;2023-04-08T12:34:43;33.53;;;30.23;;
59728;SDS011;45588;51.598;5.618;2023-04-08T12:37:08;32.53;;;29.53;;
59728;SDS011;45588;51.598;5.618;2023-04-08T12:39:33;34.08;;;30.80;;
59728;SDS011;45588;51.598;5.618;2023-04-08T12:42:02;50.50;;;32.10;;
59728;SDS011;45588;51.598;5.618;2023-04-08T12:44:28;35.03;;;31.70;;
59728;SDS011;45588;51.598;5.618;2023-04-08T12:46:53;31.70;;;28.90;;
59728;SDS011;45588;51.598;5.618;2023-04-08T12:49:18;33.20;;;28.40;;
59728;SDS011;45588;51.598;5.618;2023-04-08T12:51:44;29.80;;;27.08;;
59728;SDS011;45588;51.598;5.618;2023-04-08T12:54:09;28.33;;;25.63;;
59728;SDS011;45588;51.598;5.618;2023-04-08T12:56:34;30.95;;;28.05;;
59728;SDS011;45588;51.598;5.618;2023-04-08T12:59:00;30.87;;;28.07;;
59728;SDS011;45588;51.598;5.618;2023-04-08T13:01:25;27.95;;;25.25;;
59728;SDS011;45588;51.598;5.618;2023-04-08T13:03:50;30.98;;;28.05;;
59728;SDS011;45588;51.598;5.618;2023-04-08T13:06:15;20.75;;;18.58;;
59728;SDS011;45588;51.598;5.618;2023-04-08T13:08:41;18.38;;;16.48;;
59728;SDS011;45588;51.598;5.618;2023-04-08T13:11:06;19.58;;;17.48;;
59728;SDS011;45588;51.598;5.618;2023-04-08T13:13:31;17.98;;;16.08;;
59728;SDS011;45588;51.598;5.618;2023-04-08T13:15:57;19.30;;;17.23;;
59728;SDS011;45588;51.598;5.618;2023-04-08T13:18:22;18.13;;;15.95;;
59728;SDS011;45588;51.598;5.618;2023-04-08T13:20:47;17.55;;;15.75;;
59728;SDS011;45588;51.598;5.618;2023-04-08T13:23:13;16.97;;;15.27;;
59728;SDS011;45588;51.598;5.618;2023-04-08T13:25:42;20.65;;;16.17;;
59728;SDS011;45588;51.598;5.618;2023-04-08T13:28:07;18.73;;;16.73;;
59728;SDS011;45588;51.598;5.618;2023-04-08T13:30:32;18.23;;;16.33;;
59728;SDS011;45588;51.598;5.618;2023-04-08T13:32:58;18.83;;;16.67;;
59728;SDS011;45588;51.598;5.618;2023-04-08T13:35:23;18.87;;;16.97;;
59728;SDS011;45588;51.598;5.618;2023-04-08T13:37:48;18.90;;;16.58;;
59728;SDS011;45588;51.598;5.618;2023-04-08T13:40:13;19.25;;;17.35;;
59728;SDS011;45588;51.598;5.618;2023-04-08T13:42:38;19.58;;;17.70;;
59728;SDS011;45588;51.598;5.618;2023-04-08T13:45:04;20.23;;;18.33;;
59728;SDS011;45588;51.598;5.618;2023-04-08T13:47:29;19.95;;;17.85;;
59728;SDS011;45588;51.598;5.618;2023-04-08T13:49:55;19.77;;;17.88;;
59728;SDS011;45588;51.598;5.618;2023-04-08T13:52:21;20.95;;;18.75;;
59728;SDS011;45588;51.598;5.618;2023-04-08T13:54:46;21.48;;;19.23;;
59728;SDS011;45588;51.598;5.618;2023-04-08T13:57:11;20.38;;;18.38;;
59728;SDS011;45588;51.598;5.618;2023-04-08T13:59:37;21.15;;;19.05;;
59728;SDS011;45588;51.598;5.618;2023-04-08T14:02:02;19.53;;;17.70;;
59728;SDS011;45588;51.598;5.618;2023-04-08T14:04:27;23.05;;;20.33;;
59728;SDS011;45588;51.598;5.618;2023-04-08T14:06:52;16.83;;;11.97;;
59728;SDS011;45588;51.598;5.618;2023-04-08T14:09:18;20.17;;;18.08;;
59728;SDS011;45588;51.598;5.618;2023-04-08T14:11:43;20.42;;;18.42;;
59728;SDS011;45588;51.598;5.618;2023-04-08T14:14:08;22.13;;;20.00;;
59728;SDS011;45588;51.598;5.618;2023-04-08T14:16:34;20.60;;;18.80;;
59728;SDS011;45588;51.598;5.618;2023-04-08T14:19:00;20.98;;;18.88;;
59728;SDS011;45588;51.598;5.618;2023-04-08T14:21:25;20.75;;;18.73;;
59728;SDS011;45588;51.598;5.618;2023-04-08T14:23:50;21.23;;;19.15;;